Pagrindinis puslapis
METAR-TAF:

METAR-TAF

Oro uostai :

Dibrugarh, Indija

platuma: 27-29N, ilguma: 095-01E, Aukštis: 110 m

Dabartinis oras

Ataskaita buvo paskelbta 23 minutes, ne 01:30 UTC
Ramus vėjas
Temperatūra 18°C
Drėgmė 88%
Slėgis 1017 hPa
Matomumas: 2000 m
Išsisklaidę debesys ne aukštis 2000 ft
Išsisklaidę debesys ne aukštis 10000 ft
Sekli rūkas

METAR: VEMN 220130Z 00000KT 2000 MIFG SCT020 SCT100 18/16 Q1017 TEMPO 1500 MIFG

Laikas: 07:23 (01:53 UTC)

Prognozė

Ataskaita buvo paskelbta 2 valandos ir 53 minutes, ne 23:00 UTC
Prognozė galioja nuo 22 metu 00 UTC su 22 metu 09 UTC
Vėjas kt iš Šiaurės
Matomumas: 1000 m
Mažai debesys ne aukštis 2000 ft
Sekli rūkas
Tapsmas
nuo 22 metu 03 UTC su 22 metu 05 UTC
Vėjas 7 kt iš Šiaurės Rytų
Matomumas: 3000 m
rūkana
Tapsmas
nuo 22 metu 07 UTC su 22 metu 09 UTC
Matomumas: 5000 m
migla

TAF: VEMN 212300Z 2200/2209 00000KT 1000 MIFG FEW020 BECMG 2203/2205 05007KT 3000 BR BECMG 2207/2209 5000 HZ NSC

Orai ataskaitas ir orų prognozės (METAR, TAF).

turimą stotys yra geltonos ir raudonos taškus žemėlapyje.

Perkelti pele per norėdami pamatyti stoties vardą.

Tada spustelėkite, norėdami matyti oro stebėjimo ir prognozės.

Norėdami pakeisti žemėlapį: spustelėkite ant žalios mygtukų su juodo kryžiaus žemyn,; žalią mygtuką su brūkšneliu, jei norite nutolinti; arba žalių rodyklių gretimoms žemėlapius.


METAR-TAF: